Time;durP1;ratioP1;P1;durP2;ratioP2;P2;SDS_P1;SDS_P2;PMS_P1;PMS_P2;Temp;Humidity;BMP_temperature;BMP_pressure;BME280_temperature;BME280_humidity;BME280_pressure;Samples;Min_cycle;Max_cycle;Signal;HPM_P1;HPM_P2
2024/03/23 00:01:04;;;;;;;13.57;8.30;;;;;;;;;;771627;180;834591;-71
2024/03/23 00:03:29;;;;;;;10.80;7.50;;;;;;;;;;780223;178;816486;-70
2024/03/23 00:05:55;;;;;;;13.63;8.03;;;;;;;;;;774272;179;1009684;-70
2024/03/23 00:08:21;;;;;;;16.08;8.70;;;;;;;;;;778530;181;715024;-71
2024/03/23 00:10:47;;;;;;;14.73;8.20;;;;;;;;;;776585;178;915683;-72
2024/03/23 00:13:13;;;;;;;11.40;7.27;;;;;;;;;;776456;178;820947;-72
2024/03/23 00:15:39;;;;;;;12.70;7.37;;;;;;;;;;775457;178;918770;-70
2024/03/23 00:18:04;;;;;;;15.37;8.97;;;;;;;;;;774957;178;1017080;-70
2024/03/23 00:20:30;;;;;;;12.10;7.10;;;;;;;;;;778885;180;810532;-69
2024/03/23 00:22:56;;;;;;;13.90;7.00;;;;;;;;;;774467;177;899070;-71
2024/03/23 00:25:22;;;;;;;14.20;7.70;;;;;;;;;;774370;179;919220;-70
2024/03/23 00:27:48;;;;;;;11.17;6.90;;;;;;;;;;781122;180;920479;-72
2024/03/23 00:30:14;;;;;;;13.37;7.80;;;;;;;;;;778000;179;916305;-70
2024/03/23 00:32:39;;;;;;;13.88;8.10;;;;;;;;;;774315;177;926552;-71
2024/03/23 00:35:05;;;;;;;15.40;8.00;;;;;;;;;;780490;177;914070;-69
2024/03/23 00:37:31;;;;;;;9.53;7.20;;;;;;;;;;772562;177;914002;-70
2024/03/23 00:39:57;;;;;;;16.08;8.50;;;;;;;;;;772549;177;895429;-70
2024/03/23 00:42:24;;;;;;;14.40;8.20;;;;;;;;;;775645;178;920827;-70
2024/03/23 00:44:49;;;;;;;13.83;8.50;;;;;;;;;;776997;177;722909;-69
2024/03/23 00:47:15;;;;;;;13.13;8.23;;;;;;;;;;772189;177;924753;-69
2024/03/23 00:49:41;;;;;;;12.02;7.78;;;;;;;;;;773376;179;929795;-70
2024/03/23 00:52:07;;;;;;;14.30;7.03;;;;;;;;;;780951;181;820185;-69
2024/03/23 00:54:32;;;;;;;14.00;7.40;;;;;;;;;;776857;177;809673;-71
2024/03/23 00:56:58;;;;;;;11.40;6.60;;;;;;;;;;772962;180;914912;-70
2024/03/23 00:59:28;;;;;;;13.17;8.37;;;;;;;;;;778597;179;912539;-72
2024/03/23 01:01:50;;;;;;;15.53;9.00;;;;;;;;;;772283;179;811522;-72
2024/03/23 01:04:16;;;;;;;13.33;8.37;;;;;;;;;;776893;178;809682;-70
2024/03/23 01:06:42;;;;;;;19.60;8.93;;;;;;;;;;780725;178;889402;-72
2024/03/23 01:09:10;;;;;;;13.20;6.80;;;;;;;;;;774660;178;916194;-69
2024/03/23 01:11:33;;;;;;;14.77;8.60;;;;;;;;;;771504;180;814906;-72
2024/03/23 01:13:59;;;;;;;14.00;8.57;;;;;;;;;;780414;177;935436;-70
2024/03/23 01:16:25;;;;;;;11.60;7.80;;;;;;;;;;774899;178;915849;-73
2024/03/23 01:18:51;;;;;;;12.67;7.30;;;;;;;;;;774663;177;878878;-69
2024/03/23 01:21:17;;;;;;;10.53;7.10;;;;;;;;;;775980;181;919381;-71
2024/03/23 01:23:43;;;;;;;10.63;7.63;;;;;;;;;;780998;177;789643;-72
2024/03/23 01:26:08;;;;;;;12.03;6.97;;;;;;;;;;776459;179;807076;-70
2024/03/23 01:28:34;;;;;;;13.40;6.80;;;;;;;;;;774766;178;912941;-71
2024/03/23 01:31:00;;;;;;;13.03;8.80;;;;;;;;;;776208;177;919576;-72
2024/03/23 01:33:26;;;;;;;13.20;7.90;;;;;;;;;;776440;177;838895;-71
2024/03/23 01:35:52;;;;;;;13.85;8.23;;;;;;;;;;773784;180;918100;-72
2024/03/23 01:38:18;;;;;;;13.40;7.70;;;;;;;;;;777012;180;882243;-71
2024/03/23 01:40:43;;;;;;;12.23;7.82;;;;;;;;;;774919;180;916742;-72
2024/03/23 01:43:09;;;;;;;11.88;7.93;;;;;;;;;;770013;180;816853;-70
2024/03/23 01:45:35;;;;;;;14.63;8.57;;;;;;;;;;782081;180;753447;-72
2024/03/23 01:48:01;;;;;;;13.40;8.80;;;;;;;;;;770985;180;937875;-72
2024/03/23 01:50:27;;;;;;;12.53;8.03;;;;;;;;;;773789;178;907335;-69
2024/03/23 01:52:53;;;;;;;26.98;7.97;;;;;;;;;;777328;177;827142;-71
2024/03/23 01:55:19;;;;;;;10.83;7.33;;;;;;;;;;773967;180;914973;-70
2024/03/23 01:57:45;;;;;;;18.20;8.57;;;;;;;;;;774063;177;809108;-70
2024/03/23 02:00:12;;;;;;;11.93;8.00;;;;;;;;;;773836;178;848633;-71
2024/03/23 02:02:37;;;;;;;12.00;8.03;;;;;;;;;;779391;180;902887;-69
2024/03/23 02:05:03;;;;;;;19.87;8.10;;;;;;;;;;775148;178;932985;-70
2024/03/23 02:07:29;;;;;;;14.02;8.00;;;;;;;;;;771348;181;819216;-70
2024/03/23 02:09:54;;;;;;;12.60;8.37;;;;;;;;;;776141;180;823285;-70
2024/03/23 02:12:21;;;;;;;10.73;8.60;;;;;;;;;;775873;178;813091;-70
2024/03/23 02:14:46;;;;;;;15.93;9.17;;;;;;;;;;769954;180;911323;-70
2024/03/23 02:17:12;;;;;;;14.60;9.40;;;;;;;;;;775124;181;865614;-72
2024/03/23 02:19:38;;;;;;;15.03;7.77;;;;;;;;;;770573;178;922066;-71
2024/03/23 02:22:04;;;;;;;13.03;8.13;;;;;;;;;;772343;177;915822;-71
2024/03/23 02:24:29;;;;;;;13.60;9.00;;;;;;;;;;775116;177;920660;-70
2024/03/23 02:26:55;;;;;;;14.80;9.20;;;;;;;;;;774247;177;912283;-71
2024/03/23 02:29:21;;;;;;;12.70;8.10;;;;;;;;;;774054;179;913715;-72
2024/03/23 02:31:47;;;;;;;15.50;9.70;;;;;;;;;;772736;177;914096;-73
2024/03/23 02:34:13;;;;;;;12.97;8.53;;;;;;;;;;777678;179;912223;-72
2024/03/23 02:36:39;;;;;;;14.73;8.53;;;;;;;;;;777838;177;905623;-70
2024/03/23 02:39:05;;;;;;;11.95;8.13;;;;;;;;;;774188;178;902646;-72
2024/03/23 02:41:30;;;;;;;13.00;7.43;;;;;;;;;;778348;179;909013;-73
2024/03/23 02:43:56;;;;;;;11.13;7.23;;;;;;;;;;777148;177;858753;-70
2024/03/23 02:46:22;;;;;;;11.97;7.67;;;;;;;;;;774954;177;918612;-71
2024/03/23 02:48:49;;;;;;;16.57;9.00;;;;;;;;;;781057;180;815545;-70
2024/03/23 02:51:14;;;;;;;13.20;8.17;;;;;;;;;;776652;178;923467;-70
2024/03/23 02:53:40;;;;;;;11.93;8.77;;;;;;;;;;774309;178;815240;-71
2024/03/23 02:56:07;;;;;;;10.37;7.57;;;;;;;;;;778134;177;924395;-70
2024/03/23 02:58:32;;;;;;;13.60;8.17;;;;;;;;;;773542;180;868061;-74
2024/03/23 03:00:58;;;;;;;11.33;7.57;;;;;;;;;;774552;177;816892;-70
2024/03/23 03:03:24;;;;;;;12.32;8.45;;;;;;;;;;771870;180;833491;-70
2024/03/23 03:05:49;;;;;;;9.53;6.77;;;;;;;;;;773480;180;712998;-73
2024/03/23 03:08:15;;;;;;;11.97;8.13;;;;;;;;;;775509;177;921896;-72
2024/03/23 03:10:41;;;;;;;16.03;9.40;;;;;;;;;;777850;176;776247;-73
2024/03/23 03:13:07;;;;;;;16.83;8.50;;;;;;;;;;786122;177;817450;-71
2024/03/23 03:15:33;;;;;;;15.63;8.33;;;;;;;;;;777860;177;918111;-70
2024/03/23 03:17:59;;;;;;;13.67;7.83;;;;;;;;;;780322;177;824269;-71
2024/03/23 03:20:24;;;;;;;15.23;9.23;;;;;;;;;;776617;177;923350;-72
2024/03/23 03:22:50;;;;;;;13.63;8.67;;;;;;;;;;779509;177;817386;-73
2024/03/23 03:25:16;;;;;;;11.82;8.82;;;;;;;;;;779355;177;816258;-73
2024/03/23 03:27:42;;;;;;;14.70;8.73;;;;;;;;;;780519;178;920292;-73
2024/03/23 03:30:08;;;;;;;10.93;7.20;;;;;;;;;;776964;177;893649;-73
2024/03/23 03:32:34;;;;;;;14.77;8.80;;;;;;;;;;779792;178;816436;-72
2024/03/23 03:35:00;;;;;;;13.50;8.40;;;;;;;;;;781119;178;809576;-70
2024/03/23 03:37:26;;;;;;;15.20;8.70;;;;;;;;;;771934;177;814207;-70
2024/03/23 03:39:51;;;;;;;14.70;8.50;;;;;;;;;;773280;177;877551;-69
2024/03/23 03:42:17;;;;;;;15.53;8.90;;;;;;;;;;773814;178;847436;-71
2024/03/23 03:44:43;;;;;;;12.90;8.30;;;;;;;;;;782498;178;902703;-72
2024/03/23 03:47:09;;;;;;;14.80;8.10;;;;;;;;;;776350;177;876911;-73
2024/03/23 03:49:35;;;;;;;13.17;9.97;;;;;;;;;;776646;177;889101;-70
2024/03/23 03:52:01;;;;;;;17.20;7.83;;;;;;;;;;781383;177;812814;-72
2024/03/23 03:54:26;;;;;;;9.18;6.90;;;;;;;;;;777154;177;755354;-72
2024/03/23 03:56:53;;;;;;;18.77;8.27;;;;;;;;;;778024;177;912889;-72
2024/03/23 03:59:19;;;;;;;14.43;9.53;;;;;;;;;;781717;177;915156;-72
2024/03/23 04:01:44;;;;;;;12.90;8.70;;;;;;;;;;781811;177;913669;-71
2024/03/23 04:04:10;;;;;;;13.27;8.47;;;;;;;;;;775591;177;918646;-72
2024/03/23 04:06:36;;;;;;;11.43;7.53;;;;;;;;;;779516;177;818888;-70
2024/03/23 04:09:02;;;;;;;13.77;8.80;;;;;;;;;;780040;177;915602;-69
2024/03/23 04:11:27;;;;;;;13.97;8.23;;;;;;;;;;776434;177;817278;-69
2024/03/23 04:13:53;;;;;;;18.85;8.10;;;;;;;;;;773712;178;866011;-72
2024/03/23 04:16:25;;;;;;;11.30;8.13;;;;;;;;;;772653;180;819329;-72
2024/03/23 04:18:51;;;;;;;12.80;7.20;;;;;;;;;;777405;177;920673;-70
2024/03/23 04:21:17;;;;;;;13.30;8.57;;;;;;;;;;774520;178;816064;-70
2024/03/23 04:23:43;;;;;;;15.40;7.77;;;;;;;;;;775286;177;919645;-70
2024/03/23 04:26:08;;;;;;;13.43;8.33;;;;;;;;;;774786;177;920963;-68
2024/03/23 04:28:34;;;;;;;14.40;8.60;;;;;;;;;;773052;177;937797;-69
2024/03/23 04:31:00;;;;;;;14.60;8.77;;;;;;;;;;779940;177;815929;-69
2024/03/23 04:33:26;;;;;;;12.00;8.40;;;;;;;;;;772602;177;918465;-70
2024/03/23 04:35:52;;;;;;;14.55;8.85;;;;;;;;;;775624;178;918948;-71
2024/03/23 04:38:18;;;;;;;12.47;9.23;;;;;;;;;;778680;178;818171;-68
2024/03/23 04:40:44;;;;;;;15.27;8.80;;;;;;;;;;774190;178;755553;-70
2024/03/23 04:43:09;;;;;;;14.40;8.53;;;;;;;;;;771651;178;917881;-70
2024/03/23 04:45:35;;;;;;;13.73;8.13;;;;;;;;;;774788;178;826031;-70
2024/03/23 04:48:01;;;;;;;14.80;9.17;;;;;;;;;;778567;180;816915;-69
2024/03/23 04:50:27;;;;;;;16.60;9.77;;;;;;;;;;774277;178;919652;-73
2024/03/23 04:52:53;;;;;;;14.35;9.32;;;;;;;;;;776632;180;900181;-69
2024/03/23 04:55:19;;;;;;;12.33;8.43;;;;;;;;;;778959;180;862050;-70
2024/03/23 04:57:44;;;;;;;12.43;9.10;;;;;;;;;;774998;179;919127;-68
2024/03/23 05:00:16;;;;;;;12.23;8.50;;;;;;;;;;777604;180;1022257;-69
2024/03/23 05:02:37;;;;;;;12.67;8.63;;;;;;;;;;777464;179;918750;-69
2024/03/23 05:05:07;;;;;;;22.13;9.30;;;;;;;;;;772862;179;903753;-70
2024/03/23 05:07:29;;;;;;;14.20;9.53;;;;;;;;;;773815;178;818605;-69
2024/03/23 05:09:54;;;;;;;14.87;9.43;;;;;;;;;;780137;180;749107;-71
2024/03/23 05:12:20;;;;;;;17.20;9.70;;;;;;;;;;774531;180;713959;-70
2024/03/23 05:14:47;;;;;;;14.77;9.05;;;;;;;;;;776942;180;816123;-70
2024/03/23 05:17:12;;;;;;;15.33;9.33;;;;;;;;;;776155;180;624359;-70
2024/03/23 05:19:38;;;;;;;18.20;10.30;;;;;;;;;;783036;179;633640;-69
2024/03/23 05:22:04;;;;;;;15.07;8.87;;;;;;;;;;776288;177;637913;-70
2024/03/23 05:24:29;;;;;;;12.53;8.43;;;;;;;;;;776064;178;638920;-70
2024/03/23 05:26:58;;;;;;;16.63;9.90;;;;;;;;;;782106;180;622335;-70
2024/03/23 05:29:21;;;;;;;11.93;8.90;;;;;;;;;;777343;180;617259;-69
2024/03/23 05:31:47;;;;;;;14.02;8.40;;;;;;;;;;773347;179;911926;-72
2024/03/23 05:34:13;;;;;;;14.13;8.47;;;;;;;;;;778213;180;932457;-70
2024/03/23 05:36:39;;;;;;;13.18;9.50;;;;;;;;;;776018;178;794073;-70
2024/03/23 05:39:05;;;;;;;13.63;9.03;;;;;;;;;;775739;178;816833;-70
2024/03/23 05:41:30;;;;;;;16.83;9.73;;;;;;;;;;781432;177;620230;-70
2024/03/23 05:43:56;;;;;;;12.23;8.83;;;;;;;;;;777549;177;630650;-69
2024/03/23 05:46:22;;;;;;;10.93;7.90;;;;;;;;;;772674;181;944345;-69
2024/03/23 05:48:48;;;;;;;12.60;8.60;;;;;;;;;;775153;180;816211;-71
2024/03/23 05:51:14;;;;;;;16.53;8.90;;;;;;;;;;778597;178;815206;-71
2024/03/23 05:53:40;;;;;;;25.37;10.20;;;;;;;;;;773606;180;915911;-70
2024/03/23 05:56:06;;;;;;;13.50;8.90;;;;;;;;;;775490;178;815669;-71
2024/03/23 05:58:31;;;;;;;26.30;10.60;;;;;;;;;;779946;180;803780;-70
2024/03/23 06:00:57;;;;;;;13.03;8.17;;;;;;;;;;775315;180;816184;-72
2024/03/23 06:03:23;;;;;;;14.93;9.47;;;;;;;;;;773224;180;770656;-70
2024/03/23 06:05:50;;;;;;;12.60;7.97;;;;;;;;;;777956;180;846035;-70
2024/03/23 06:08:15;;;;;;;13.60;7.90;;;;;;;;;;771150;178;920466;-71
2024/03/23 06:10:41;;;;;;;17.87;9.03;;;;;;;;;;772735;180;816557;-70
2024/03/23 06:13:08;;;;;;;12.32;8.68;;;;;;;;;;777150;180;917256;-71
2024/03/23 06:15:37;;;;;;;13.83;8.60;;;;;;;;;;774733;180;903699;-71
2024/03/23 06:17:59;;;;;;;13.73;8.60;;;;;;;;;;776340;178;893401;-70
2024/03/23 06:20:25;;;;;;;13.80;8.30;;;;;;;;;;774671;177;911789;-70
2024/03/23 06:22:50;;;;;;;15.57;8.65;;;;;;;;;;774972;178;816085;-71
2024/03/23 06:25:16;;;;;;;12.47;8.47;;;;;;;;;;774129;178;886255;-70
2024/03/23 06:27:42;;;;;;;13.43;8.43;;;;;;;;;;773901;180;820902;-72
2024/03/23 06:30:08;;;;;;;11.23;8.70;;;;;;;;;;780302;180;821626;-71
2024/03/23 06:32:34;;;;;;;12.83;8.40;;;;;;;;;;766012;179;922065;-72
2024/03/23 06:35:00;;;;;;;15.47;8.80;;;;;;;;;;774286;177;816299;-73
2024/03/23 06:37:26;;;;;;;22.23;10.43;;;;;;;;;;776297;179;780979;-73
2024/03/23 06:39:52;;;;;;;16.53;9.70;;;;;;;;;;770000;180;915111;-72
2024/03/23 06:42:17;;;;;;;15.53;9.53;;;;;;;;;;775884;179;919246;-72
2024/03/23 06:44:43;;;;;;;14.47;9.33;;;;;;;;;;780319;178;911732;-72
2024/03/23 06:47:09;;;;;;;13.93;9.38;;;;;;;;;;775814;180;815767;-72
2024/03/23 06:49:35;;;;;;;14.27;8.60;;;;;;;;;;773618;180;807126;-72
2024/03/23 06:52:01;;;;;;;13.63;9.40;;;;;;;;;;775953;181;817209;-72
2024/03/23 06:54:27;;;;;;;15.27;9.60;;;;;;;;;;769196;180;814343;-71
2024/03/23 06:56:53;;;;;;;13.87;8.43;;;;;;;;;;767615;177;940023;-72
2024/03/23 06:59:18;;;;;;;11.27;9.20;;;;;;;;;;773281;180;907791;-72
2024/03/23 07:01:44;;;;;;;16.70;11.33;;;;;;;;;;778611;180;853087;-72
2024/03/23 07:04:10;;;;;;;15.13;9.93;;;;;;;;;;774595;179;932465;-71
2024/03/23 07:06:36;;;;;;;13.13;9.07;;;;;;;;;;772719;180;904051;-72
2024/03/23 07:09:02;;;;;;;13.10;8.90;;;;;;;;;;776666;178;714255;-72
2024/03/23 07:11:28;;;;;;;21.73;11.90;;;;;;;;;;771771;181;919980;-72
2024/03/23 07:13:55;;;;;;;21.20;13.57;;;;;;;;;;775406;177;912189;-73
2024/03/23 07:16:21;;;;;;;10.93;8.85;;;;;;;;;;778177;178;913063;-73
2024/03/23 07:18:47;;;;;;;12.27;8.23;;;;;;;;;;773521;178;888442;-72
2024/03/23 07:21:13;;;;;;;14.70;8.50;;;;;;;;;;773376;178;920636;-72
2024/03/23 07:23:42;;;;;;;12.50;8.33;;;;;;;;;;774385;180;924227;-72
2024/03/23 07:26:04;;;;;;;15.93;8.70;;;;;;;;;;775634;177;813472;-71
2024/03/23 07:28:34;;;;;;;12.50;8.20;;;;;;;;;;775152;179;911633;-71
2024/03/23 07:31:04;;;;;;;15.53;9.73;;;;;;;;;;775145;177;915386;-73
2024/03/23 07:33:30;;;;;;;12.90;8.53;;;;;;;;;;781753;179;819345;-74
2024/03/23 07:35:56;;;;;;;13.60;9.30;;;;;;;;;;774767;179;926277;-72
2024/03/23 07:38:22;;;;;;;13.60;8.67;;;;;;;;;;774972;180;719008;-71
2024/03/23 07:40:55;;;;;;;14.05;9.82;;;;;;;;;;777622;180;817598;-73
2024/03/23 07:43:17;;;;;;;14.60;8.37;;;;;;;;;;771195;180;697221;-72
2024/03/23 07:45:42;;;;;;;10.27;8.37;;;;;;;;;;754374;184;864132;-71
2024/03/23 07:48:09;;;;;;;15.10;9.33;;;;;;;;;;772007;177;911671;-72
2024/03/23 07:50:34;;;;;;;10.90;7.47;;;;;;;;;;782124;177;705520;-72
2024/03/23 07:53:00;;;;;;;11.97;7.93;;;;;;;;;;774544;179;816906;-72
2024/03/23 07:55:26;;;;;;;12.10;7.20;;;;;;;;;;772656;177;814049;-70
2024/03/23 07:57:53;;;;;;;12.70;8.43;;;;;;;;;;778441;180;811822;-72
2024/03/23 08:00:18;;;;;;;10.70;6.80;;;;;;;;;;771802;180;920236;-72
2024/03/23 08:02:44;;;;;;;10.93;6.85;;;;;;;;;;772366;177;918627;-73
2024/03/23 08:05:09;;;;;;;10.90;8.00;;;;;;;;;;781044;178;853199;-72
2024/03/23 08:07:35;;;;;;;14.60;7.43;;;;;;;;;;773211;180;888557;-72
2024/03/23 08:10:03;;;;;;;13.03;8.07;;;;;;;;;;774346;180;942000;-71
2024/03/23 08:12:27;;;;;;;11.43;8.13;;;;;;;;;;775070;178;919324;-73
2024/03/23 08:14:53;;;;;;;10.00;7.00;;;;;;;;;;770740;180;837918;-72
2024/03/23 08:17:19;;;;;;;16.07;7.90;;;;;;;;;;775995;179;743776;-73
2024/03/23 08:19:44;;;;;;;12.47;6.87;;;;;;;;;;771760;177;906785;-72
2024/03/23 08:22:10;;;;;;;12.03;7.13;;;;;;;;;;780724;180;760549;-73
2024/03/23 08:24:36;;;;;;;12.30;6.80;;;;;;;;;;772969;177;930479;-72
2024/03/23 08:27:04;;;;;;;13.47;7.83;;;;;;;;;;772773;177;849286;-72
2024/03/23 08:29:28;;;;;;;11.73;7.73;;;;;;;;;;779781;178;818084;-73
2024/03/23 08:31:54;;;;;;;11.20;7.40;;;;;;;;;;775431;176;880657;-72
2024/03/23 08:34:20;;;;;;;13.05;7.47;;;;;;;;;;775799;179;917508;-71
2024/03/23 08:36:45;;;;;;;15.03;6.90;;;;;;;;;;782698;176;814164;-73
2024/03/23 08:39:11;;;;;;;10.33;6.50;;;;;;;;;;775872;176;944754;-72
2024/03/23 08:41:37;;;;;;;12.20;7.30;;;;;;;;;;773122;178;921722;-72
2024/03/23 08:44:04;;;;;;;12.55;7.55;;;;;;;;;;777617;179;917093;-74
2024/03/23 08:46:30;;;;;;;11.30;8.03;;;;;;;;;;774246;179;813894;-73
2024/03/23 08:48:55;;;;;;;9.83;7.13;;;;;;;;;;773627;177;931690;-73
2024/03/23 08:51:21;;;;;;;9.70;6.47;;;;;;;;;;774973;179;813543;-74
2024/03/23 08:53:47;;;;;;;11.83;6.87;;;;;;;;;;778785;180;955498;-72
2024/03/23 08:56:13;;;;;;;9.63;6.40;;;;;;;;;;774380;177;837188;-73
2024/03/23 08:58:39;;;;;;;11.23;8.02;;;;;;;;;;774567;178;898282;-73
2024/03/23 09:01:13;;;;;;;11.63;7.50;;;;;;;;;;778341;180;738254;-74
2024/03/23 09:03:39;;;;;;;10.83;7.53;;;;;;;;;;774741;180;917663;-72
2024/03/23 09:06:08;;;;;;;9.10;6.40;;;;;;;;;;781236;177;661043;-73
2024/03/23 09:08:35;;;;;;;10.40;6.30;;;;;;;;;;772263;178;807994;-74
2024/03/23 09:11:00;;;;;;;8.83;5.60;;;;;;;;;;777972;178;698313;-74
2024/03/23 09:13:26;;;;;;;10.00;6.40;;;;;;;;;;775304;178;857897;-73
2024/03/23 09:15:51;;;;;;;9.67;5.80;;;;;;;;;;774908;178;691118;-74
2024/03/23 09:18:17;;;;;;;8.37;5.37;;;;;;;;;;777696;177;716588;-73
2024/03/23 09:20:43;;;;;;;8.87;4.80;;;;;;;;;;775016;177;718109;-74
2024/03/23 09:23:09;;;;;;;8.00;4.95;;;;;;;;;;775946;177;878346;-73
2024/03/23 09:25:37;;;;;;;9.87;5.83;;;;;;;;;;781030;177;803986;-74
2024/03/23 09:28:02;;;;;;;9.17;4.70;;;;;;;;;;777027;177;803924;-73
2024/03/23 09:30:28;;;;;;;7.00;4.80;;;;;;;;;;774362;177;816522;-74
2024/03/23 09:32:54;;;;;;;7.90;5.40;;;;;;;;;;777142;177;811991;-74
2024/03/23 09:35:20;;;;;;;8.03;4.53;;;;;;;;;;782441;177;789549;-75
2024/03/23 09:37:46;;;;;;;10.00;6.00;;;;;;;;;;774005;178;821823;-73
2024/03/23 09:40:12;;;;;;;8.57;4.80;;;;;;;;;;772793;177;935951;-74
2024/03/23 09:42:37;;;;;;;10.48;6.05;;;;;;;;;;776109;178;815808;-73
2024/03/23 09:45:04;;;;;;;10.17;5.60;;;;;;;;;;783348;175;710858;-73
2024/03/23 09:47:29;;;;;;;9.97;5.47;;;;;;;;;;774994;177;729567;-72
2024/03/23 09:49:55;;;;;;;8.30;5.30;;;;;;;;;;778455;177;833086;-72
2024/03/23 09:52:21;;;;;;;10.27;6.43;;;;;;;;;;777585;177;878102;-74
2024/03/23 09:54:47;;;;;;;9.10;5.23;;;;;;;;;;779319;177;768591;-74
2024/03/23 09:57:13;;;;;;;16.93;5.90;;;;;;;;;;781798;177;677977;-74
2024/03/23 09:59:39;;;;;;;11.17;6.30;;;;;;;;;;778389;177;917955;-73
2024/03/23 10:02:04;;;;;;;11.30;5.90;;;;;;;;;;779714;177;665328;-73
2024/03/23 10:04:36;;;;;;;8.93;6.33;;;;;;;;;;778996;177;816602;-74
2024/03/23 10:07:08;;;;;;;9.43;6.10;;;;;;;;;;772749;179;715788;-72
2024/03/23 10:09:34;;;;;;;11.53;5.87;;;;;;;;;;772712;179;815270;-74
2024/03/23 10:11:59;;;;;;;8.68;5.55;;;;;;;;;;773589;180;729164;-75
2024/03/23 10:14:26;;;;;;;7.83;4.80;;;;;;;;;;776903;179;813780;-73
2024/03/23 10:16:52;;;;;;;10.77;5.57;;;;;;;;;;776697;180;715411;-75
2024/03/23 10:19:18;;;;;;;8.77;5.30;;;;;;;;;;772679;179;781349;-75
2024/03/23 10:21:44;;;;;;;7.67;4.50;;;;;;;;;;770344;178;845297;-75
2024/03/23 10:24:10;;;;;;;8.87;4.63;;;;;;;;;;777577;179;893121;-74
2024/03/23 10:26:36;;;;;;;7.30;4.75;;;;;;;;;;773442;180;748337;-73
2024/03/23 10:29:03;;;;;;;7.30;4.60;;;;;;;;;;776142;177;808787;-74
2024/03/23 10:31:28;;;;;;;8.03;5.10;;;;;;;;;;781611;177;633469;-74
2024/03/23 10:33:54;;;;;;;8.27;5.47;;;;;;;;;;774570;180;816411;-74
2024/03/23 10:36:20;;;;;;;7.53;4.60;;;;;;;;;;774456;180;843615;-73
2024/03/23 10:38:46;;;;;;;9.20;4.80;;;;;;;;;;778580;177;711914;-75
2024/03/23 10:41:11;;;;;;;6.80;4.97;;;;;;;;;;774916;179;747546;-74
2024/03/23 10:43:37;;;;;;;8.68;5.60;;;;;;;;;;771069;179;816199;-75
2024/03/23 10:46:03;;;;;;;7.30;5.37;;;;;;;;;;780298;180;618742;-75
2024/03/23 10:48:29;;;;;;;5.60;4.40;;;;;;;;;;771126;177;955851;-75
2024/03/23 10:50:55;;;;;;;9.45;5.00;;;;;;;;;;776168;178;709605;-74
2024/03/23 10:53:22;;;;;;;8.47;5.10;;;;;;;;;;776259;177;729655;-75
2024/03/23 10:55:48;;;;;;;8.70;4.97;;;;;;;;;;783133;179;619142;-76
2024/03/23 10:58:14;;;;;;;7.67;5.23;;;;;;;;;;777304;177;869840;-76
2024/03/23 11:00:40;;;;;;;8.80;4.30;;;;;;;;;;777445;177;707112;-75
2024/03/23 11:03:12;;;;;;;6.93;3.97;;;;;;;;;;779783;179;812479;-76
2024/03/23 11:05:37;;;;;;;8.20;4.77;;;;;;;;;;776414;179;812985;-74
2024/03/23 11:08:03;;;;;;;7.50;4.57;;;;;;;;;;775288;177;902483;-76
2024/03/23 11:10:29;;;;;;;7.53;4.47;;;;;;;;;;773345;178;899376;-76
2024/03/23 11:12:55;;;;;;;8.07;4.23;;;;;;;;;;776043;179;710108;-75
2024/03/23 11:15:21;;;;;;;6.90;3.70;;;;;;;;;;777355;178;619135;-74
2024/03/23 11:17:53;;;;;;;11.40;4.23;;;;;;;;;;774544;177;821516;-75
2024/03/23 11:20:18;;;;;;;7.03;4.90;;;;;;;;;;781092;180;724552;-75
2024/03/23 11:22:46;;;;;;;6.47;4.70;;;;;;;;;;775352;180;703874;-74
2024/03/23 11:25:13;;;;;;;6.47;3.97;;;;;;;;;;773591;179;765528;-73
2024/03/23 11:27:39;;;;;;;5.97;3.60;;;;;;;;;;775297;177;695370;-74
2024/03/23 11:30:09;;;;;;;7.03;3.60;;;;;;;;;;774190;180;640155;-74
2024/03/23 11:32:35;;;;;;;4.70;3.13;;;;;;;;;;771533;180;815945;-74
2024/03/23 11:35:01;;;;;;;7.32;3.55;;;;;;;;;;776175;180;713324;-73
2024/03/23 11:37:27;;;;;;;5.40;3.63;;;;;;;;;;778458;181;712697;-75
2024/03/23 11:39:53;;;;;;;5.27;3.50;;;;;;;;;;773348;177;810774;-75
2024/03/23 11:42:20;;;;;;;6.10;3.00;;;;;;;;;;774473;177;858314;-74
2024/03/23 11:44:45;;;;;;;4.20;2.47;;;;;;;;;;780751;180;805993;-74
2024/03/23 11:47:10;;;;;;;5.60;3.37;;;;;;;;;;771989;177;850480;-74
2024/03/23 11:49:40;;;;;;;9.33;4.20;;;;;;;;;;774238;177;876474;-74
2024/03/23 11:52:02;;;;;;;5.23;2.97;;;;;;;;;;774513;177;857854;-75
2024/03/23 11:54:28;;;;;;;6.77;3.60;;;;;;;;;;770640;180;697361;-75
2024/03/23 11:56:57;;;;;;;6.70;2.50;;;;;;;;;;772137;178;715068;-73
2024/03/23 11:59:29;;;;;;;6.00;3.57;;;;;;;;;;774328;180;815029;-73
2024/03/23 12:01:55;;;;;;;7.77;4.33;;;;;;;;;;775906;179;915327;-75
2024/03/23 12:04:24;;;;;;;5.70;3.27;;;;;;;;;;777881;179;623398;-74
2024/03/23 12:06:50;;;;;;;4.82;3.28;;;;;;;;;;776594;178;816568;-74
2024/03/23 12:09:16;;;;;;;7.07;3.33;;;;;;;;;;777856;178;734447;-75
2024/03/23 12:11:42;;;;;;;5.30;3.20;;;;;;;;;;777046;179;923998;-76
2024/03/23 12:14:08;;;;;;;5.33;3.20;;;;;;;;;;774804;179;756892;-74
2024/03/23 12:16:34;;;;;;;4.10;2.40;;;;;;;;;;773782;177;711345;-75
2024/03/23 12:18:59;;;;;;;6.13;2.43;;;;;;;;;;779921;177;792595;-78
2024/03/23 12:21:25;;;;;;;5.80;2.63;;;;;;;;;;776778;177;794811;-74
2024/03/23 12:23:51;;;;;;;5.47;2.63;;;;;;;;;;776425;178;859774;-74
2024/03/23 12:26:18;;;;;;;5.57;3.00;;;;;;;;;;778020;180;650893;-73
2024/03/23 12:28:43;;;;;;;4.70;2.80;;;;;;;;;;772938;177;924335;-74
2024/03/23 12:31:09;;;;;;;6.57;3.43;;;;;;;;;;775833;179;631234;-75
2024/03/23 12:33:35;;;;;;;5.60;4.33;;;;;;;;;;778136;179;914061;-74
2024/03/23 12:36:00;;;;;;;6.47;2.97;;;;;;;;;;775180;179;725582;-75
2024/03/23 12:38:26;;;;;;;6.27;3.30;;;;;;;;;;773229;178;915587;-74
2024/03/23 12:40:52;;;;;;;4.43;2.87;;;;;;;;;;774340;177;915174;-73
2024/03/23 12:43:18;;;;;;;5.80;3.30;;;;;;;;;;781508;177;688166;-74
2024/03/23 12:45:48;;;;;;;7.97;3.40;;;;;;;;;;773315;178;788527;-74
2024/03/23 12:48:14;;;;;;;7.00;3.77;;;;;;;;;;773277;177;712580;-74
2024/03/23 12:50:39;;;;;;;6.73;4.43;;;;;;;;;;776053;180;852291;-72
2024/03/23 12:53:05;;;;;;;5.27;3.57;;;;;;;;;;775687;177;813498;-72
2024/03/23 12:55:31;;;;;;;6.50;3.77;;;;;;;;;;774235;179;918333;-72
2024/03/23 12:57:57;;;;;;;15.70;5.13;;;;;;;;;;776011;180;813962;-72
2024/03/23 13:00:23;;;;;;;8.20;5.37;;;;;;;;;;776584;179;813712;-69
2024/03/23 13:02:49;;;;;;;9.10;4.10;;;;;;;;;;774337;178;630983;-70
2024/03/23 13:05:14;;;;;;;4.67;2.30;;;;;;;;;;776560;177;627980;-70
2024/03/23 13:07:40;;;;;;;4.23;2.37;;;;;;;;;;781619;178;633701;-69
2024/03/23 13:10:07;;;;;;;5.80;3.60;;;;;;;;;;763927;181;626104;-68
2024/03/23 13:12:33;;;;;;;8.40;4.90;;;;;;;;;;773606;177;916772;-65
2024/03/23 13:14:59;;;;;;;6.63;3.00;;;;;;;;;;776952;177;892383;-65
2024/03/23 13:17:26;;;;;;;5.90;2.43;;;;;;;;;;775587;177;904806;-69
2024/03/23 13:19:51;;;;;;;4.82;2.30;;;;;;;;;;778639;179;885260;-66
2024/03/23 13:22:16;;;;;;;4.10;2.37;;;;;;;;;;779245;179;916686;-66
2024/03/23 13:24:42;;;;;;;3.90;2.07;;;;;;;;;;774111;180;778728;-65
2024/03/23 13:27:10;;;;;;;3.80;1.90;;;;;;;;;;774547;177;745604;-65
2024/03/23 13:29:35;;;;;;;9.30;2.55;;;;;;;;;;779509;177;909650;-65
2024/03/23 13:32:00;;;;;;;4.30;2.37;;;;;;;;;;775213;179;915751;-70
2024/03/23 13:34:26;;;;;;;3.30;1.90;;;;;;;;;;775365;179;861909;-67
2024/03/23 13:36:52;;;;;;;4.33;1.93;;;;;;;;;;776189;177;919712;-67
2024/03/23 13:39:17;;;;;;;9.63;2.30;;;;;;;;;;774648;180;816723;-66
2024/03/23 13:41:43;;;;;;;5.80;2.50;;;;;;;;;;774800;177;919339;-64
2024/03/23 13:44:10;;;;;;;4.27;2.17;;;;;;;;;;773367;178;788670;-65
2024/03/23 13:46:36;;;;;;;8.20;2.73;;;;;;;;;;778930;179;918037;-64
2024/03/23 13:49:01;;;;;;;4.30;2.13;;;;;;;;;;775778;177;761045;-64
2024/03/23 13:51:27;;;;;;;8.90;3.50;;;;;;;;;;771722;180;916480;-64
2024/03/23 13:53:54;;;;;;;4.47;2.23;;;;;;;;;;779724;179;653180;-64
2024/03/23 13:56:20;;;;;;;4.90;1.90;;;;;;;;;;771443;178;936131;-64
2024/03/23 13:58:46;;;;;;;3.37;1.70;;;;;;;;;;775008;179;923464;-64
2024/03/23 14:01:12;;;;;;;3.77;2.10;;;;;;;;;;777783;179;839620;-68
2024/03/23 14:03:38;;;;;;;6.68;2.55;;;;;;;;;;771076;178;867612;-69
2024/03/23 14:06:03;;;;;;;3.70;1.97;;;;;;;;;;771952;180;936543;-68
2024/03/23 14:08:32;;;;;;;3.13;1.90;;;;;;;;;;775848;177;653995;-67
2024/03/23 14:10:57;;;;;;;4.53;1.90;;;;;;;;;;774879;179;782752;-67
2024/03/23 14:13:21;;;;;;;4.90;2.20;;;;;;;;;;773095;179;818422;-67